createdAt,value
2019-03-20T00:01:20.639Z,99.90
2019-03-20T00:03:50.786Z,99.90
2019-03-20T00:06:20.880Z,99.90
2019-03-20T00:08:51.020Z,99.90
2019-03-20T00:11:21.197Z,99.90
2019-03-20T00:13:51.142Z,99.90
2019-03-20T00:16:21.145Z,99.90
2019-03-20T00:18:51.227Z,99.90
2019-03-20T00:21:23.269Z,99.90
2019-03-20T00:23:53.374Z,99.90
2019-03-20T00:26:23.335Z,99.90
2019-03-20T00:28:53.290Z,99.90
2019-03-20T00:31:23.242Z,99.90
2019-03-20T00:33:53.204Z,99.90
2019-03-20T00:36:23.153Z,99.90
2019-03-20T00:38:53.182Z,99.90
2019-03-20T00:41:23.200Z,99.90
2019-03-20T00:43:53.213Z,99.90
2019-03-20T00:46:23.222Z,99.90
2019-03-20T00:48:53.712Z,99.90
2019-03-20T00:51:23.699Z,99.90
2019-03-20T00:53:53.692Z,99.90
2019-03-20T00:56:23.718Z,99.90
2019-03-20T00:58:53.823Z,99.90
2019-03-20T01:01:23.891Z,99.90
2019-03-20T01:03:53.895Z,99.90
2019-03-20T01:06:24.120Z,99.90
2019-03-20T01:08:54.224Z,99.90
2019-03-20T01:11:24.166Z,99.90
2019-03-20T01:13:54.329Z,99.90
2019-03-20T01:16:24.424Z,99.90
2019-03-20T01:18:54.519Z,99.90
2019-03-20T01:21:24.615Z,99.90
2019-03-20T01:24:06.861Z,99.90
2019-03-20T01:26:36.792Z,99.90
2019-03-20T01:29:06.935Z,99.90
2019-03-20T01:31:36.880Z,99.90
2019-03-20T01:34:06.887Z,99.90
2019-03-20T01:36:36.974Z,99.90
2019-03-20T01:39:07.226Z,99.90
2019-03-20T01:41:38.240Z,99.90
2019-03-20T01:44:08.554Z,99.90
2019-03-20T01:46:38.545Z,99.90
2019-03-20T01:49:10.573Z,99.90
2019-03-20T01:51:40.522Z,99.90
2019-03-20T01:54:10.599Z,99.90
2019-03-20T01:56:40.548Z,99.90
2019-03-20T01:59:10.531Z,99.90
2019-03-20T02:01:40.711Z,99.90
2019-03-20T02:04:10.688Z,99.90
2019-03-20T02:06:40.636Z,99.90
2019-03-20T02:09:10.588Z,99.90
2019-03-20T02:11:42.652Z,99.90
2019-03-20T02:14:12.649Z,99.90
2019-03-20T02:16:42.724Z,99.90
2019-03-20T02:19:12.711Z,99.90
2019-03-20T02:21:42.678Z,99.90
2019-03-20T02:24:13.107Z,99.90
2019-03-20T02:26:43.256Z,99.90
2019-03-20T02:29:13.516Z,99.90
2019-03-20T02:31:43.908Z,99.90
2019-03-20T02:34:13.912Z,99.90
2019-03-20T02:36:44.258Z,99.90
2019-03-20T02:39:14.554Z,99.90
2019-03-20T02:41:44.619Z,99.90
2019-03-20T02:44:15.723Z,99.90
2019-03-20T02:46:45.778Z,99.90
2019-03-20T02:49:16.032Z,99.90
2019-03-20T02:51:46.060Z,99.90
2019-03-20T02:54:16.016Z,99.90
2019-03-20T02:56:46.088Z,99.90
2019-03-20T02:59:19.243Z,99.90
2019-03-20T03:01:49.275Z,99.90
2019-03-20T03:04:19.231Z,99.90
2019-03-20T03:06:49.575Z,99.90
2019-03-20T03:09:19.663Z,99.90
2019-03-20T03:11:49.694Z,99.90
2019-03-20T03:14:19.696Z,99.90
2019-03-20T03:16:49.674Z,99.90
2019-03-20T03:19:19.978Z,99.90
2019-03-20T03:21:50.016Z,99.90
2019-03-20T03:24:20.438Z,99.90
2019-03-20T03:26:50.410Z,99.90
2019-03-20T03:29:20.350Z,99.90
2019-03-20T03:31:50.339Z,99.90
2019-03-20T03:34:20.436Z,99.90
2019-03-20T03:36:50.620Z,99.90
2019-03-20T03:39:20.622Z,99.90
2019-03-20T03:41:50.716Z,99.90
2019-03-20T03:44:20.691Z,99.90
2019-03-20T03:46:50.739Z,99.90
2019-03-20T03:49:21.783Z,99.90
2019-03-20T03:51:52.012Z,99.90
2019-03-20T03:54:22.030Z,99.90
2019-03-20T03:56:52.668Z,99.90
2019-03-20T03:59:22.648Z,99.90
2019-03-20T04:01:52.689Z,99.90
2019-03-20T04:04:22.079Z,99.90
2019-03-20T04:06:52.176Z,99.90
2019-03-20T04:09:21.827Z,99.90
2019-03-20T04:11:51.289Z,99.90
2019-03-20T04:14:21.339Z,99.90
2019-03-20T04:16:51.566Z,99.90
2019-03-20T04:19:21.708Z,99.90
2019-03-20T04:21:52.062Z,99.90
2019-03-20T04:24:22.327Z,99.90
2019-03-20T04:26:52.506Z,99.90
2019-03-20T04:29:22.568Z,99.90
2019-03-20T04:31:52.686Z,99.90
2019-03-20T04:34:23.093Z,99.90
2019-03-20T04:36:53.094Z,99.90
2019-03-20T04:39:23.071Z,99.90
2019-03-20T04:41:53.079Z,99.90
2019-03-20T04:44:23.239Z,99.90
2019-03-20T04:46:53.316Z,99.90
2019-03-20T04:49:24.738Z,99.90
2019-03-20T04:51:55.373Z,99.90
2019-03-20T04:54:25.490Z,99.90
2019-03-20T04:56:55.539Z,99.90
2019-03-20T04:59:25.544Z,99.90
2019-03-20T05:01:55.485Z,99.90
2019-03-20T05:04:25.539Z,99.90
2019-03-20T05:06:59.157Z,99.90
2019-03-20T05:09:27.950Z,99.90
2019-03-20T05:11:58.005Z,99.90
2019-03-20T05:14:27.988Z,99.90
2019-03-20T05:16:57.910Z,99.90
2019-03-20T05:19:27.919Z,99.90
2019-03-20T05:21:57.994Z,99.90
2019-03-20T05:24:40.759Z,99.90
2019-03-20T05:27:10.782Z,99.90
2019-03-20T05:29:40.762Z,99.90
2019-03-20T05:32:10.722Z,99.90
2019-03-20T05:34:40.691Z,99.90
2019-03-20T05:37:11.010Z,99.90
2019-03-20T05:39:41.431Z,99.90
2019-03-20T05:42:10.887Z,99.90
2019-03-20T05:44:40.887Z,99.90
2019-03-20T05:47:10.909Z,99.90
2019-03-20T05:49:40.889Z,99.90
2019-03-20T05:52:10.907Z,99.90
2019-03-20T05:54:40.972Z,99.90
2019-03-20T05:57:12.617Z,99.90
2019-03-20T05:59:42.868Z,99.90
2019-03-20T06:02:12.823Z,99.90
2019-03-20T06:04:42.826Z,99.90
2019-03-20T06:07:21.068Z,99.90
2019-03-20T06:09:44.775Z,99.90
2019-03-20T06:12:14.855Z,99.90
2019-03-20T06:14:44.851Z,99.90
2019-03-20T06:17:14.809Z,99.90
2019-03-20T06:19:44.770Z,99.90
2019-03-20T06:22:14.765Z,99.90
2019-03-20T06:24:45.669Z,99.90
2019-03-20T06:27:15.634Z,99.90
2019-03-20T06:29:45.705Z,99.90
2019-03-20T06:32:15.676Z,99.90
2019-03-20T06:34:45.694Z,99.90
2019-03-20T06:37:15.697Z,99.90
2019-03-20T06:39:45.901Z,99.90
2019-03-20T06:42:15.849Z,99.90
2019-03-20T06:44:45.916Z,99.90
2019-03-20T06:47:15.849Z,99.90
2019-03-20T06:49:45.898Z,99.90
2019-03-20T06:52:15.836Z,99.90
2019-03-20T06:54:45.803Z,99.90
2019-03-20T06:57:15.901Z,99.90
2019-03-20T07:00:06.687Z,99.90
2019-03-20T07:02:38.736Z,99.90
2019-03-20T07:05:29.590Z,99.90
2019-03-20T07:07:59.776Z,99.90
2019-03-20T07:10:32.952Z,99.90
2019-03-20T07:13:03.288Z,99.90
2019-03-20T07:15:33.311Z,99.90
2019-03-20T07:18:03.380Z,99.90
2019-03-20T07:20:33.610Z,99.90
2019-03-20T07:23:03.675Z,99.90
2019-03-20T07:25:34.588Z,99.90
2019-03-20T07:28:04.967Z,99.90
2019-03-20T07:30:36.527Z,99.90
2019-03-20T07:33:06.477Z,99.90
2019-03-20T07:35:36.475Z,99.90
2019-03-20T07:38:06.512Z,99.90
2019-03-20T07:40:36.525Z,99.90
2019-03-20T07:43:09.206Z,99.90
2019-03-20T07:45:38.221Z,99.90
2019-03-20T07:48:08.334Z,99.90
2019-03-20T07:50:38.300Z,99.90
2019-03-20T07:53:08.471Z,99.90
2019-03-20T07:55:38.410Z,99.90
2019-03-20T07:58:08.739Z,99.90
2019-03-20T08:00:38.700Z,99.90
2019-03-20T08:03:08.719Z,99.90
2019-03-20T08:05:38.663Z,99.90
2019-03-20T08:08:08.698Z,99.90
2019-03-20T08:10:38.824Z,99.90
2019-03-20T08:13:08.946Z,99.90
2019-03-20T08:15:39.024Z,99.90
2019-03-20T08:18:14.084Z,99.90
2019-03-20T08:20:44.268Z,99.90
2019-03-20T08:23:14.223Z,99.90
2019-03-20T08:25:44.991Z,99.90
2019-03-20T08:28:18.324Z,99.90
2019-03-20T08:30:48.263Z,99.90
2019-03-20T08:33:18.295Z,99.90
2019-03-20T08:35:48.375Z,99.90
2019-03-20T08:38:19.015Z,99.90
2019-03-20T08:40:49.498Z,99.90
2019-03-20T08:43:19.596Z,99.90
2019-03-20T08:45:49.631Z,99.90
2019-03-20T08:48:19.603Z,99.90
2019-03-20T08:50:49.726Z,99.90
2019-03-20T08:53:19.909Z,99.90
2019-03-20T08:55:49.968Z,99.90
2019-03-20T08:58:20.007Z,99.90
2019-03-20T09:00:51.095Z,99.90
2019-03-20T09:03:21.172Z,99.90
2019-03-20T09:05:51.180Z,99.90
2019-03-20T09:08:29.471Z,99.90
2019-03-20T09:10:53.043Z,99.90
2019-03-20T09:13:23.100Z,99.90
2019-03-20T09:15:53.163Z,99.90
2019-03-20T09:18:23.466Z,99.90
2019-03-20T09:20:53.411Z,99.90
2019-03-20T09:23:23.422Z,99.90
2019-03-20T09:25:55.047Z,99.90
2019-03-20T09:28:24.985Z,99.90
2019-03-20T09:30:55.010Z,99.90
2019-03-20T09:33:25.281Z,99.90
2019-03-20T09:35:55.298Z,99.90
2019-03-20T09:38:25.540Z,99.90
2019-03-20T09:40:55.569Z,99.90
2019-03-20T09:43:25.683Z,99.90
2019-03-20T09:45:56.989Z,99.90
2019-03-20T09:48:28.348Z,98.40
2019-03-20T09:50:58.348Z,96.30
2019-03-20T09:53:28.469Z,92.00
2019-03-20T09:55:58.495Z,90.10
2019-03-20T09:58:28.458Z,84.50
2019-03-20T10:00:58.837Z,83.00
2019-03-20T10:03:28.955Z,72.80
2019-03-20T10:05:58.920Z,74.30
2019-03-20T10:08:29.004Z,72.40
2019-03-20T10:10:58.936Z,71.80
2019-03-20T10:13:28.888Z,69.50
2019-03-20T10:15:59.146Z,62.60
2019-03-20T10:18:29.174Z,49.50
2019-03-20T10:20:59.131Z,39.10
2019-03-20T10:23:29.153Z,35.20
2019-03-20T10:25:59.168Z,32.60
2019-03-20T10:28:29.375Z,28.90
2019-03-20T10:30:59.419Z,28.90
2019-03-20T10:33:29.418Z,28.20
2019-03-20T10:35:59.562Z,27.20
2019-03-20T10:38:29.645Z,26.80
2019-03-20T10:40:59.765Z,27.00
2019-03-20T10:43:29.934Z,26.50
2019-03-20T10:46:00.075Z,26.00
2019-03-20T10:48:30.121Z,27.10
2019-03-20T10:51:00.136Z,26.20
2019-03-20T10:53:30.090Z,27.10
2019-03-20T10:55:59.913Z,26.70
2019-03-20T10:58:29.868Z,30.20
2019-03-20T11:00:59.656Z,36.00
2019-03-20T11:03:29.651Z,39.50
2019-03-20T11:05:59.583Z,40.80
2019-03-20T11:08:29.560Z,41.80
2019-03-20T11:10:59.794Z,37.70
2019-03-20T11:13:29.843Z,33.90
2019-03-20T11:15:59.906Z,34.40
2019-03-20T11:18:29.924Z,38.10
2019-03-20T11:20:59.992Z,40.80
2019-03-20T11:23:30.044Z,43.00
2019-03-20T11:26:00.203Z,44.50
2019-03-20T11:28:30.313Z,45.50
2019-03-20T11:31:01.109Z,46.40
2019-03-20T11:33:31.120Z,47.60
2019-03-20T11:36:01.079Z,47.10
2019-03-20T11:38:31.108Z,47.70
2019-03-20T11:41:01.169Z,48.10
2019-03-20T11:43:31.104Z,48.00
2019-03-20T11:46:01.122Z,48.70
2019-03-20T11:48:33.335Z,48.50
2019-03-20T11:51:02.768Z,48.50
2019-03-20T11:53:32.713Z,48.60
2019-03-20T11:56:02.665Z,48.30
2019-03-20T11:58:32.613Z,48.70
2019-03-20T12:01:02.574Z,48.70
2019-03-20T12:03:33.578Z,48.60
2019-03-20T12:06:03.800Z,48.40
2019-03-20T12:08:33.881Z,47.20
2019-03-20T12:11:04.049Z,47.60
2019-03-20T12:13:34.078Z,46.90
2019-03-20T12:16:04.237Z,47.50
2019-03-20T12:18:34.278Z,47.10
2019-03-20T12:21:04.972Z,46.80
2019-03-20T12:23:34.949Z,47.50
2019-03-20T12:26:05.568Z,46.40
2019-03-20T12:28:35.571Z,45.50
2019-03-20T12:31:06.765Z,45.60
2019-03-20T12:33:36.943Z,44.80
2019-03-20T12:36:07.184Z,42.30
2019-03-20T12:38:37.296Z,43.20
2019-03-20T12:41:07.263Z,43.50
2019-03-20T12:43:37.339Z,43.70
2019-03-20T12:46:07.271Z,43.90
2019-03-20T12:48:37.236Z,44.10
2019-03-20T12:51:07.296Z,44.10
2019-03-20T12:53:37.304Z,43.70
2019-03-20T12:56:07.229Z,43.90
2019-03-20T12:58:37.235Z,44.40
2019-03-20T13:01:07.323Z,44.90
2019-03-20T13:03:37.258Z,45.60
2019-03-20T13:06:07.249Z,46.50
2019-03-20T13:08:37.347Z,47.00
2019-03-20T13:11:07.328Z,46.90
2019-03-20T13:13:37.379Z,46.70
2019-03-20T13:16:07.358Z,47.10
2019-03-20T13:18:37.314Z,46.90
2019-03-20T13:21:07.268Z,47.00
2019-03-20T13:23:38.060Z,46.30
2019-03-20T13:26:08.107Z,46.30
2019-03-20T13:28:40.835Z,44.30
2019-03-20T13:31:20.142Z,41.60
2019-03-20T13:33:50.166Z,42.60
2019-03-20T13:36:20.307Z,44.40
2019-03-20T13:38:50.388Z,44.80
2019-03-20T13:41:20.644Z,44.30
2019-03-20T13:43:50.584Z,45.40
2019-03-20T13:46:20.701Z,46.40
2019-03-20T13:48:50.671Z,46.50
2019-03-20T13:51:20.619Z,46.40
2019-03-20T13:53:50.595Z,44.50
2019-03-20T13:56:22.233Z,37.80
2019-03-20T13:58:52.479Z,34.50
2019-03-20T14:01:22.523Z,33.80
2019-03-20T14:03:52.702Z,37.00
2019-03-20T14:06:22.696Z,46.50
2019-03-20T14:08:52.966Z,43.20
2019-03-20T14:11:22.957Z,68.60
2019-03-20T14:13:52.992Z,44.40
2019-03-20T14:16:22.942Z,44.50
2019-03-20T14:18:53.228Z,45.10
2019-03-20T14:21:23.228Z,53.30
2019-03-20T14:26:22.911Z,46.30
2019-03-20T14:28:52.978Z,66.40
2019-03-20T14:33:53.507Z,79.70
2019-03-20T14:36:23.425Z,74.20
2019-03-20T14:38:53.409Z,55.90
2019-03-20T14:43:53.026Z,55.00
2019-03-20T15:01:26.463Z,66.30
2019-03-20T15:03:56.425Z,79.90
2019-03-20T15:06:26.560Z,55.90
2019-03-20T15:08:56.528Z,47.40
2019-03-20T15:11:26.532Z,48.10
2019-03-20T15:16:26.024Z,54.80
2019-03-20T15:18:56.059Z,48.90
2019-03-20T15:21:26.114Z,64.40
2019-03-20T15:31:24.696Z,62.70
2019-03-20T15:33:55.647Z,61.70
2019-03-20T15:36:25.639Z,58.50
2019-03-20T15:38:55.594Z,52.10
2019-03-20T15:41:25.631Z,62.60
2019-03-20T15:44:02.451Z,69.90
2019-03-20T15:46:33.884Z,38.30
2019-03-20T15:49:03.906Z,51.20
2019-03-20T15:51:33.868Z,38.70
2019-03-20T15:54:03.992Z,39.30
2019-03-20T15:56:33.998Z,39.30
2019-03-20T15:59:04.673Z,52.90
2019-03-20T16:09:05.544Z,43.60
2019-03-20T16:14:05.245Z,51.70
2019-03-20T16:39:05.024Z,52.20
2019-03-20T16:41:35.199Z,53.30
2019-03-20T16:44:05.596Z,53.60
2019-03-20T16:46:35.540Z,54.10
2019-03-20T16:49:05.568Z,54.10
2019-03-20T16:51:35.722Z,54.30
2019-03-20T16:54:05.839Z,54.70
2019-03-20T16:56:36.104Z,55.00
2019-03-20T16:59:06.203Z,55.30
2019-03-20T17:01:36.298Z,55.60
2019-03-20T17:04:06.210Z,68.50
2019-03-20T17:06:36.164Z,56.60
2019-03-20T17:09:07.551Z,56.80
2019-03-20T17:11:38.535Z,57.10
2019-03-20T17:14:08.770Z,57.70
2019-03-20T17:16:42.624Z,57.80
2019-03-20T17:19:10.705Z,58.10
2019-03-20T17:24:10.412Z,58.50
2019-03-20T17:26:40.406Z,59.30
2019-03-20T17:29:10.596Z,60.20
2019-03-20T17:31:40.969Z,60.70
2019-03-20T17:34:11.751Z,62.00
2019-03-20T17:36:41.881Z,62.80
2019-03-20T17:44:11.508Z,65.30
2019-03-20T17:46:41.511Z,67.60
2019-03-20T17:49:11.710Z,68.80
2019-03-20T17:51:42.155Z,69.20
2019-03-20T17:54:12.193Z,83.70
2019-03-20T17:56:42.289Z,71.70
2019-03-20T17:59:13.294Z,73.40
2019-03-20T18:01:43.856Z,75.00
2019-03-20T18:04:14.142Z,76.90
2019-03-20T18:06:44.252Z,78.10
2019-03-20T18:09:14.208Z,80.90
2019-03-20T18:11:47.641Z,81.20
2019-03-20T18:14:16.938Z,82.60
2019-03-20T18:16:47.045Z,82.80
2019-03-20T18:19:17.264Z,85.40
2019-03-20T18:21:47.497Z,87.10
2019-03-20T18:24:17.847Z,89.60
2019-03-20T18:26:49.135Z,91.10
2019-03-20T18:29:20.306Z,90.70
2019-03-20T18:31:50.931Z,90.80
2019-03-20T18:34:21.867Z,91.30
2019-03-20T18:36:52.246Z,91.80
2019-03-20T18:39:22.262Z,93.20
2019-03-20T18:41:57.832Z,94.60
2019-03-20T18:44:23.889Z,95.70
2019-03-20T18:46:54.113Z,95.90
2019-03-20T18:49:24.148Z,96.00
2019-03-20T18:51:54.098Z,99.00
2019-03-20T18:54:24.103Z,99.90
2019-03-20T18:56:54.051Z,99.90
2019-03-20T18:59:24.237Z,99.90
2019-03-20T19:01:54.285Z,99.90
2019-03-20T19:04:24.482Z,99.90
2019-03-20T19:06:54.779Z,99.90
2019-03-20T19:09:25.013Z,99.90
2019-03-20T19:11:55.147Z,99.90
2019-03-20T19:14:25.487Z,99.90
2019-03-20T19:16:55.623Z,99.90
2019-03-20T19:19:25.843Z,99.90
2019-03-20T19:21:55.969Z,99.90
2019-03-20T19:24:25.976Z,99.90
2019-03-20T19:26:56.210Z,99.90
2019-03-20T19:29:26.300Z,99.90
2019-03-20T19:31:57.449Z,99.90
2019-03-20T19:34:28.262Z,99.90
2019-03-20T19:36:58.314Z,99.90
2019-03-20T19:39:28.306Z,99.90
2019-03-20T19:41:58.544Z,99.90
2019-03-20T19:44:28.666Z,99.90
2019-03-20T19:46:59.029Z,99.90
2019-03-20T19:49:29.016Z,99.90
2019-03-20T19:51:59.092Z,99.90
2019-03-20T19:54:29.838Z,99.90
2019-03-20T19:56:59.980Z,99.90
2019-03-20T19:59:31.651Z,99.90
2019-03-20T20:02:01.611Z,99.90
2019-03-20T20:04:31.691Z,99.90
2019-03-20T20:07:01.857Z,99.90
2019-03-20T20:09:31.996Z,99.90
2019-03-20T20:12:02.036Z,99.90
2019-03-20T20:14:32.058Z,99.90
2019-03-20T20:17:02.226Z,99.90
2019-03-20T20:19:32.538Z,99.90
2019-03-20T20:22:02.682Z,99.90
2019-03-20T20:24:32.812Z,99.90
2019-03-20T20:27:02.923Z,99.90
2019-03-20T20:29:32.880Z,99.90
2019-03-20T20:32:02.891Z,99.90
2019-03-20T20:34:33.820Z,99.90
2019-03-20T20:37:03.930Z,99.90
2019-03-20T20:39:34.444Z,99.90
2019-03-20T20:42:04.387Z,99.90
2019-03-20T20:44:35.477Z,99.90
2019-03-20T20:47:05.866Z,99.90
2019-03-20T20:49:39.062Z,99.90
2019-03-20T20:57:11.160Z,99.90
2019-03-20T20:59:41.223Z,99.90
2019-03-20T21:04:40.692Z,99.90
2019-03-20T21:07:11.639Z,99.90
2019-03-20T21:09:41.906Z,99.90
2019-03-20T21:12:12.047Z,99.90
2019-03-20T21:14:42.111Z,99.90
2019-03-20T21:17:15.778Z,99.90
2019-03-20T21:19:45.893Z,99.90
2019-03-20T21:22:33.279Z,99.90
2019-03-20T21:25:04.330Z,99.90
2019-03-20T21:27:58.414Z,99.90
2019-03-20T21:30:37.340Z,99.90
2019-03-20T21:33:28.247Z,99.90
2019-03-20T21:36:27.143Z,99.90
2019-03-20T21:38:58.162Z,99.90
2019-03-20T21:41:31.197Z,99.90
2019-03-20T21:47:18.649Z,99.90
2019-03-20T21:49:49.017Z,99.90
2019-03-20T22:00:40.504Z,99.90
2019-03-20T22:21:29.617Z,99.90
2019-03-20T22:24:21.067Z,99.90
2019-03-20T22:27:16.443Z,99.90
2019-03-20T22:29:46.706Z,99.90
2019-03-20T22:37:23.015Z,99.90
2019-03-20T22:48:17.470Z,99.90
2019-03-20T22:51:02.535Z,99.90
2019-03-20T22:53:41.473Z,99.90
2019-03-20T22:56:30.658Z,99.90
2019-03-20T22:59:00.627Z,99.90
2019-03-20T23:01:45.529Z,99.90
2019-03-20T23:04:33.143Z,99.90
2019-03-20T23:07:03.377Z,99.90
2019-03-20T23:09:33.403Z,99.90
2019-03-20T23:12:08.193Z,99.90
2019-03-20T23:14:38.327Z,99.90
2019-03-20T23:17:08.400Z,99.90
2019-03-20T23:19:39.907Z,99.90
2019-03-20T23:22:10.547Z,99.90
2019-03-20T23:24:40.739Z,99.90
2019-03-20T23:27:17.301Z,99.90
2019-03-20T23:29:47.247Z,99.90
2019-03-20T23:32:17.269Z,99.90
2019-03-20T23:34:47.277Z,99.90
2019-03-20T23:37:17.394Z,99.90
2019-03-20T23:39:48.352Z,99.90
2019-03-20T23:42:18.450Z,99.90
2019-03-20T23:49:49.400Z,99.90
2019-03-20T23:52:19.619Z,99.90
2019-03-20T23:54:49.713Z,99.90
